sensor_id;sensor_type;location;lat;lon;timestamp;pressure;altitude;pressure_sealevel;temperature;humidity
68822;BME280;55834;50.870;4.606;2023-09-08T00:00:29;100963.66;;;20.88;50.58
68822;BME280;55834;50.870;4.606;2023-09-08T00:02:55;100961.97;;;20.87;50.49
68822;BME280;55834;50.870;4.606;2023-09-08T00:05:20;100964.63;;;20.87;50.57
68822;BME280;55834;50.870;4.606;2023-09-08T00:07:46;100963.97;;;20.83;50.61
68822;BME280;55834;50.870;4.606;2023-09-08T00:10:11;100960.97;;;20.75;50.69
68822;BME280;55834;50.870;4.606;2023-09-08T00:12:37;100959.78;;;20.66;51.10
68822;BME280;55834;50.870;4.606;2023-09-08T00:15:03;100966.19;;;20.64;50.86
68822;BME280;55834;50.870;4.606;2023-09-08T00:17:28;100958.53;;;20.58;51.09
68822;BME280;55834;50.870;4.606;2023-09-08T00:19:56;100968.16;;;20.60;50.95
68822;BME280;55834;50.870;4.606;2023-09-08T00:22:21;100961.88;;;20.61;50.81
68822;BME280;55834;50.870;4.606;2023-09-08T00:24:46;100963.59;;;20.62;50.71
68822;BME280;55834;50.870;4.606;2023-09-08T00:27:12;100958.63;;;20.56;50.41
68822;BME280;55834;50.870;4.606;2023-09-08T00:29:37;100966.09;;;20.51;50.42
68822;BME280;55834;50.870;4.606;2023-09-08T00:32:03;100966.53;;;20.45;51.39
68822;BME280;55834;50.870;4.606;2023-09-08T00:34:28;100964.59;;;20.47;51.11
68822;BME280;55834;50.870;4.606;2023-09-08T00:36:54;100961.28;;;20.43;50.83
68822;BME280;55834;50.870;4.606;2023-09-08T00:39:19;100956.50;;;20.34;51.13
68822;BME280;55834;50.870;4.606;2023-09-08T00:41:44;100957.47;;;20.33;51.44
68822;BME280;55834;50.870;4.606;2023-09-08T00:44:10;100955.41;;;20.24;51.17
68822;BME280;55834;50.870;4.606;2023-09-08T00:46:36;100957.09;;;20.25;51.60
68822;BME280;55834;50.870;4.606;2023-09-08T00:49:02;100960.13;;;20.20;51.43
68822;BME280;55834;50.870;4.606;2023-09-08T00:51:27;100958.78;;;20.13;52.18
68822;BME280;55834;50.870;4.606;2023-09-08T00:53:53;100962.63;;;20.09;52.22
68822;BME280;55834;50.870;4.606;2023-09-08T00:56:18;100964.75;;;20.04;52.69
68822;BME280;55834;50.870;4.606;2023-09-08T00:58:43;100964.94;;;20.01;52.38
68822;BME280;55834;50.870;4.606;2023-09-08T01:01:09;100963.75;;;19.91;53.19
68822;BME280;55834;50.870;4.606;2023-09-08T01:03:34;100967.41;;;19.90;53.27
68822;BME280;55834;50.870;4.606;2023-09-08T01:06:00;100961.69;;;19.81;53.01
68822;BME280;55834;50.870;4.606;2023-09-08T01:08:26;100959.31;;;19.77;53.10
68822;BME280;55834;50.870;4.606;2023-09-08T01:10:52;100961.88;;;19.78;53.45
68822;BME280;55834;50.870;4.606;2023-09-08T01:13:17;100961.88;;;19.78;53.27
68822;BME280;55834;50.870;4.606;2023-09-08T01:15:43;100967.81;;;19.83;53.46
68822;BME280;55834;50.870;4.606;2023-09-08T01:18:08;100964.75;;;19.75;52.94
68822;BME280;55834;50.870;4.606;2023-09-08T01:23:21;100957.13;;;19.69;53.47
68822;BME280;55834;50.870;4.606;2023-09-08T01:26:18;100966.66;;;19.73;53.32
68822;BME280;55834;50.870;4.606;2023-09-08T01:28:45;100962.28;;;19.58;53.12
68822;BME280;55834;50.870;4.606;2023-09-08T01:31:13;100961.69;;;19.53;53.52
68822;BME280;55834;50.870;4.606;2023-09-08T01:33:40;100957.69;;;19.60;53.91
68822;BME280;55834;50.870;4.606;2023-09-08T01:36:07;100956.53;;;19.64;53.45
68822;BME280;55834;50.870;4.606;2023-09-08T01:38:33;100950.31;;;19.64;53.49
68822;BME280;55834;50.870;4.606;2023-09-08T01:40:58;100945.06;;;19.62;52.76
68822;BME280;55834;50.870;4.606;2023-09-08T01:43:23;100954.44;;;19.55;53.09
68822;BME280;55834;50.870;4.606;2023-09-08T01:45:49;100957.91;;;19.57;53.45
68822;BME280;55834;50.870;4.606;2023-09-08T01:48:14;100952.44;;;19.58;52.89
68822;BME280;55834;50.870;4.606;2023-09-08T01:50:40;100954.91;;;19.61;52.79
68822;BME280;55834;50.870;4.606;2023-09-08T01:53:05;100953.00;;;19.64;52.53
68822;BME280;55834;50.870;4.606;2023-09-08T01:55:31;100950.72;;;19.57;52.41
68822;BME280;55834;50.870;4.606;2023-09-08T01:57:56;100948.69;;;19.61;52.73
68822;BME280;55834;50.870;4.606;2023-09-08T02:00:22;100945.06;;;19.62;52.38
68822;BME280;55834;50.870;4.606;2023-09-08T02:02:47;100942.50;;;19.60;52.48
68822;BME280;55834;50.870;4.606;2023-09-08T02:05:12;100943.72;;;19.55;52.42
68822;BME280;55834;50.870;4.606;2023-09-08T02:07:38;100935.97;;;19.50;52.41
68822;BME280;55834;50.870;4.606;2023-09-08T02:10:04;100945.84;;;19.50;52.39
68822;BME280;55834;50.870;4.606;2023-09-08T02:12:29;100947.78;;;19.48;52.58
68822;BME280;55834;50.870;4.606;2023-09-08T02:14:55;100948.69;;;19.47;52.63
68822;BME280;55834;50.870;4.606;2023-09-08T02:17:20;100952.34;;;19.46;52.74
68822;BME280;55834;50.870;4.606;2023-09-08T02:19:46;100943.66;;;19.42;52.64
68822;BME280;55834;50.870;4.606;2023-09-08T02:22:11;100950.81;;;19.42;52.72
68822;BME280;55834;50.870;4.606;2023-09-08T02:24:36;100947.19;;;19.43;52.44
68822;BME280;55834;50.870;4.606;2023-09-08T02:27:02;100947.19;;;19.43;52.37
68822;BME280;55834;50.870;4.606;2023-09-08T02:29:27;100943.66;;;19.42;52.48
68822;BME280;55834;50.870;4.606;2023-09-08T02:31:53;100944.91;;;19.36;52.74
68822;BME280;55834;50.870;4.606;2023-09-08T02:34:18;100938.56;;;19.37;52.97
68822;BME280;55834;50.870;4.606;2023-09-08T02:36:44;100942.41;;;19.33;52.68
68822;BME280;55834;50.870;4.606;2023-09-08T02:39:12;100938.97;;;19.31;52.33
68822;BME280;55834;50.870;4.606;2023-09-08T02:41:38;100940.88;;;19.29;52.51
68822;BME280;55834;50.870;4.606;2023-09-08T02:44:05;100945.34;;;19.29;52.34
68822;BME280;55834;50.870;4.606;2023-09-08T02:46:30;100949.09;;;19.26;52.11
68822;BME280;55834;50.870;4.606;2023-09-08T02:48:55;100940.97;;;19.28;52.63
68822;BME280;55834;50.870;4.606;2023-09-08T02:51:21;100940.09;;;19.27;52.40
68822;BME280;55834;50.870;4.606;2023-09-08T02:53:46;100944.09;;;19.20;52.59
68822;BME280;55834;50.870;4.606;2023-09-08T02:56:12;100942.44;;;19.17;52.27
68822;BME280;55834;50.870;4.606;2023-09-08T02:58:37;100940.81;;;19.15;52.20
68822;BME280;55834;50.870;4.606;2023-09-08T03:01:16;100935.66;;;19.12;52.50
68822;BME280;55834;50.870;4.606;2023-09-08T03:03:45;100939.47;;;19.08;52.38
68822;BME280;55834;50.870;4.606;2023-09-08T03:06:11;100934.00;;;18.95;52.86
68822;BME280;55834;50.870;4.606;2023-09-08T03:08:37;100938.19;;;18.85;53.70
68822;BME280;55834;50.870;4.606;2023-09-08T03:11:03;100932.19;;;18.81;53.72
68822;BME280;55834;50.870;4.606;2023-09-08T03:13:29;100928.16;;;18.88;53.60
68822;BME280;55834;50.870;4.606;2023-09-08T03:15:55;100930.91;;;18.87;53.58
68822;BME280;55834;50.870;4.606;2023-09-08T03:18:21;100932.84;;;18.85;53.49
68822;BME280;55834;50.870;4.606;2023-09-08T03:20:50;100927.50;;;18.85;52.94
68822;BME280;55834;50.870;4.606;2023-09-08T03:23:15;100923.97;;;18.84;53.17
68822;BME280;55834;50.870;4.606;2023-09-08T03:25:41;100923.09;;;18.84;53.25
68822;BME280;55834;50.870;4.606;2023-09-08T03:28:07;100921.19;;;18.86;53.34
68822;BME280;55834;50.870;4.606;2023-09-08T03:30:32;100927.56;;;18.83;53.01
68822;BME280;55834;50.870;4.606;2023-09-08T03:32:57;100922.31;;;18.67;53.31
68822;BME280;55834;50.870;4.606;2023-09-08T03:35:23;100919.63;;;18.67;53.58
68822;BME280;55834;50.870;4.606;2023-09-08T03:37:49;100916.00;;;18.68;53.60
68822;BME280;55834;50.870;4.606;2023-09-08T03:40:14;100919.53;;;18.69;53.69
68822;BME280;55834;50.870;4.606;2023-09-08T03:42:40;100919.81;;;18.64;53.33
68822;BME280;55834;50.870;4.606;2023-09-08T03:45:07;100918.44;;;18.57;54.26
68822;BME280;55834;50.870;4.606;2023-09-08T03:47:33;100923.78;;;18.57;54.28
68822;BME280;55834;50.870;4.606;2023-09-08T03:49:58;100921.72;;;18.62;54.08
68822;BME280;55834;50.870;4.606;2023-09-08T03:52:23;100913.50;;;18.65;53.76
68822;BME280;55834;50.870;4.606;2023-09-08T03:54:49;100918.00;;;18.65;53.65
68822;BME280;55834;50.870;4.606;2023-09-08T03:57:14;100910.16;;;18.62;54.00
68822;BME280;55834;50.870;4.606;2023-09-08T03:59:40;100911.09;;;18.61;53.00
68822;BME280;55834;50.870;4.606;2023-09-08T04:02:05;100909.38;;;18.60;53.14
68822;BME280;55834;50.870;4.606;2023-09-08T04:04:30;100912.41;;;18.54;53.05
68822;BME280;55834;50.870;4.606;2023-09-08T04:06:56;100917.69;;;18.55;53.33
68822;BME280;55834;50.870;4.606;2023-09-08T04:09:21;100914.91;;;18.57;53.30
68822;BME280;55834;50.870;4.606;2023-09-08T04:11:47;100915.03;;;18.55;52.89
68822;BME280;55834;50.870;4.606;2023-09-08T04:14:12;100916.28;;;18.48;52.65
68822;BME280;55834;50.870;4.606;2023-09-08T04:16:37;100917.25;;;18.47;52.91
68822;BME280;55834;50.870;4.606;2023-09-08T04:19:03;100912.66;;;18.49;53.13
68822;BME280;55834;50.870;4.606;2023-09-08T04:21:28;100916.22;;;18.49;53.06
68822;BME280;55834;50.870;4.606;2023-09-08T04:23:53;100913.97;;;18.42;53.40
68822;BME280;55834;50.870;4.606;2023-09-08T04:26:19;100916.09;;;18.21;52.46
68822;BME280;55834;50.870;4.606;2023-09-08T04:28:44;100923.06;;;18.23;53.75
68822;BME280;55834;50.870;4.606;2023-09-08T04:31:09;100925.56;;;18.26;53.67
68822;BME280;55834;50.870;4.606;2023-09-08T04:33:35;100921.84;;;18.29;53.30
68822;BME280;55834;50.870;4.606;2023-09-08T04:36:00;100921.16;;;18.25;53.09
68822;BME280;55834;50.870;4.606;2023-09-08T04:38:26;100918.66;;;18.22;52.82
68822;BME280;55834;50.870;4.606;2023-09-08T04:40:51;100919.50;;;18.23;53.45
68822;BME280;55834;50.870;4.606;2023-09-08T04:43:16;100916.84;;;18.23;53.48
68822;BME280;55834;50.870;4.606;2023-09-08T04:45:42;100927.63;;;18.21;53.35
68822;BME280;55834;50.870;4.606;2023-09-08T04:48:07;100925.81;;;18.22;53.47
68822;BME280;55834;50.870;4.606;2023-09-08T04:50:32;100922.19;;;18.23;53.69
68822;BME280;55834;50.870;4.606;2023-09-08T04:52:58;100935.72;;;18.20;53.78
68822;BME280;55834;50.870;4.606;2023-09-08T04:55:23;100933.41;;;18.14;54.12
68822;BME280;55834;50.870;4.606;2023-09-08T04:57:49;100931.59;;;18.14;53.70
68822;BME280;55834;50.870;4.606;2023-09-08T05:00:14;100929.38;;;18.07;54.44
68822;BME280;55834;50.870;4.606;2023-09-08T05:02:40;100921.44;;;18.05;54.32
68822;BME280;55834;50.870;4.606;2023-09-08T05:05:05;100927.47;;;18.09;53.89
68822;BME280;55834;50.870;4.606;2023-09-08T05:07:31;100921.19;;;18.10;53.58
68822;BME280;55834;50.870;4.606;2023-09-08T05:09:56;100930.22;;;18.07;54.23
68822;BME280;55834;50.870;4.606;2023-09-08T05:12:22;100933.09;;;18.04;54.00
68822;BME280;55834;50.870;4.606;2023-09-08T05:14:47;100936.59;;;18.04;54.00
68822;BME280;55834;50.870;4.606;2023-09-08T05:17:13;100929.56;;;18.03;54.52
68822;BME280;55834;50.870;4.606;2023-09-08T05:19:38;100940.25;;;18.03;54.19
68822;BME280;55834;50.870;4.606;2023-09-08T05:22:05;100945.75;;;18.00;54.17
68822;BME280;55834;50.870;4.606;2023-09-08T05:24:34;100940.41;;;18.00;54.85
68822;BME280;55834;50.870;4.606;2023-09-08T05:26:59;100941.44;;;17.98;54.42
68822;BME280;55834;50.870;4.606;2023-09-08T05:29:25;100946.69;;;17.99;55.17
68822;BME280;55834;50.870;4.606;2023-09-08T05:31:50;100946.97;;;17.95;55.43
68822;BME280;55834;50.870;4.606;2023-09-08T05:34:16;100940.66;;;17.96;55.81
68822;BME280;55834;50.870;4.606;2023-09-08T05:36:42;100955.03;;;17.93;55.80
68822;BME280;55834;50.870;4.606;2023-09-08T05:39:07;100948.69;;;17.96;55.61
68822;BME280;55834;50.870;4.606;2023-09-08T05:41:33;100945.84;;;17.83;56.10
68822;BME280;55834;50.870;4.606;2023-09-08T05:43:59;100952.56;;;17.90;56.62
68822;BME280;55834;50.870;4.606;2023-09-08T05:46:24;100951.16;;;17.99;56.36
68822;BME280;55834;50.870;4.606;2023-09-08T05:48:50;100960.41;;;18.09;55.95
68822;BME280;55834;50.870;4.606;2023-09-08T05:51:15;100962.44;;;18.20;55.59
68822;BME280;55834;50.870;4.606;2023-09-08T05:53:40;100950.38;;;18.29;55.26
68822;BME280;55834;50.870;4.606;2023-09-08T05:56:06;100959.41;;;18.26;55.73
68822;BME280;55834;50.870;4.606;2023-09-08T05:58:33;100964.09;;;18.07;56.97
68822;BME280;55834;50.870;4.606;2023-09-08T06:01:02;100970.56;;;18.18;58.07
68822;BME280;55834;50.870;4.606;2023-09-08T06:03:28;100962.44;;;18.36;57.37
68822;BME280;55834;50.870;4.606;2023-09-08T06:05:53;100957.25;;;18.48;57.40
68822;BME280;55834;50.870;4.606;2023-09-08T06:08:19;100964.19;;;18.53;57.65
68822;BME280;55834;50.870;4.606;2023-09-08T06:10:44;100965.31;;;18.79;56.87
68822;BME280;55834;50.870;4.606;2023-09-08T06:13:10;100960.22;;;19.04;56.35
68822;BME280;55834;50.870;4.606;2023-09-08T06:15:35;100963.13;;;19.30;55.83
68822;BME280;55834;50.870;4.606;2023-09-08T06:18:01;100960.84;;;19.52;55.10
68822;BME280;55834;50.870;4.606;2023-09-08T06:20:26;100969.53;;;19.70;55.08
68822;BME280;55834;50.870;4.606;2023-09-08T06:22:52;100973.94;;;19.86;54.49
68822;BME280;55834;50.870;4.606;2023-09-08T06:25:17;100976.69;;;19.84;53.98
68822;BME280;55834;50.870;4.606;2023-09-08T06:27:43;100979.00;;;19.90;54.91
68822;BME280;55834;50.870;4.606;2023-09-08T06:30:08;100979.50;;;19.97;55.14
68822;BME280;55834;50.870;4.606;2023-09-08T06:32:34;100973.59;;;20.19;54.48
68822;BME280;55834;50.870;4.606;2023-09-08T06:34:59;100967.78;;;20.39;54.23
68822;BME280;55834;50.870;4.606;2023-09-08T06:37:25;100975.69;;;20.55;53.19
68822;BME280;55834;50.870;4.606;2023-09-08T06:39:50;100974.13;;;20.65;53.55
68822;BME280;55834;50.870;4.606;2023-09-08T06:42:15;100973.84;;;20.83;52.93
68822;BME280;55834;50.870;4.606;2023-09-08T06:44:41;100975.28;;;21.01;53.01
68822;BME280;55834;50.870;4.606;2023-09-08T06:47:06;100983.03;;;21.18;52.45
68822;BME280;55834;50.870;4.606;2023-09-08T06:49:34;100984.09;;;21.29;52.07
68822;BME280;55834;50.870;4.606;2023-09-08T06:51:59;100985.44;;;21.36;51.99
68822;BME280;55834;50.870;4.606;2023-09-08T06:54:25;100989.72;;;21.51;52.12
68822;BME280;55834;50.870;4.606;2023-09-08T06:56:50;100985.19;;;21.65;51.92
68822;BME280;55834;50.870;4.606;2023-09-08T06:59:15;100988.72;;;21.78;51.80
68822;BME280;55834;50.870;4.606;2023-09-08T07:01:42;100985.13;;;21.90;51.52
68822;BME280;55834;50.870;4.606;2023-09-08T07:04:07;100987.31;;;21.98;51.33
68822;BME280;55834;50.870;4.606;2023-09-08T07:06:33;100984.69;;;22.09;51.31
68822;BME280;55834;50.870;4.606;2023-09-08T07:08:59;100985.63;;;22.21;50.67
68822;BME280;55834;50.870;4.606;2023-09-08T07:11:25;100994.53;;;22.34;50.55
68822;BME280;55834;50.870;4.606;2023-09-08T07:13:51;100981.69;;;22.38;50.15
68822;BME280;55834;50.870;4.606;2023-09-08T07:16:17;100987.38;;;22.46;50.50
68822;BME280;55834;50.870;4.606;2023-09-08T07:18:42;100987.38;;;22.57;50.53
68822;BME280;55834;50.870;4.606;2023-09-08T07:21:07;100982.97;;;22.69;50.11
68822;BME280;55834;50.870;4.606;2023-09-08T07:23:33;100983.72;;;22.82;49.87
68822;BME280;55834;50.870;4.606;2023-09-08T07:26:00;100988.53;;;22.90;49.85
68822;BME280;55834;50.870;4.606;2023-09-08T07:28:25;100980.59;;;23.00;50.25
68822;BME280;55834;50.870;4.606;2023-09-08T07:30:51;100983.47;;;23.09;49.88
68822;BME280;55834;50.870;4.606;2023-09-08T07:33:16;100984.44;;;23.19;49.43
68822;BME280;55834;50.870;4.606;2023-09-08T07:35:42;100987.78;;;23.23;49.70
68822;BME280;55834;50.870;4.606;2023-09-08T07:38:07;100982.91;;;23.39;49.81
68822;BME280;55834;50.870;4.606;2023-09-08T07:40:33;100985.38;;;23.42;49.04
68822;BME280;55834;50.870;4.606;2023-09-08T07:42:59;100983.44;;;23.56;48.18
68822;BME280;55834;50.870;4.606;2023-09-08T07:45:25;100987.34;;;23.63;48.73
68822;BME280;55834;50.870;4.606;2023-09-08T07:47:50;100985.38;;;23.76;48.34
68822;BME280;55834;50.870;4.606;2023-09-08T07:52:43;100991.97;;;23.61;48.54
68822;BME280;55834;50.870;4.606;2023-09-08T07:55:09;100989.66;;;23.56;48.65
68822;BME280;55834;50.870;4.606;2023-09-08T07:57:34;100988.97;;;23.88;48.21
68822;BME280;55834;50.870;4.606;2023-09-08T08:00:00;100992.75;;;23.97;48.50
68822;BME280;55834;50.870;4.606;2023-09-08T08:02:25;100986.09;;;24.12;48.33
68822;BME280;55834;50.870;4.606;2023-09-08T08:04:50;100990.16;;;23.95;47.26
68822;BME280;55834;50.870;4.606;2023-09-08T08:07:16;100994.28;;;24.11;46.81
68822;BME280;55834;50.870;4.606;2023-09-08T08:09:41;100993.59;;;23.86;47.54
68822;BME280;55834;50.870;4.606;2023-09-08T08:12:06;100995.44;;;24.08;47.64
68822;BME280;55834;50.870;4.606;2023-09-08T08:14:32;100990.31;;;24.37;48.01
68822;BME280;55834;50.870;4.606;2023-09-08T08:16:57;100987.09;;;24.55;47.84
68822;BME280;55834;50.870;4.606;2023-09-08T08:19:22;100988.41;;;24.71;47.04
68822;BME280;55834;50.870;4.606;2023-09-08T08:21:48;100994.44;;;24.85;47.52
68822;BME280;55834;50.870;4.606;2023-09-08T08:24:13;100986.28;;;24.96;46.66
68822;BME280;55834;50.870;4.606;2023-09-08T08:26:39;100988.69;;;25.10;46.83
68822;BME280;55834;50.870;4.606;2023-09-08T08:29:04;100988.75;;;25.20;46.58
68822;BME280;55834;50.870;4.606;2023-09-08T08:31:30;100982.69;;;25.28;46.20
68822;BME280;55834;50.870;4.606;2023-09-08T08:33:55;100986.44;;;25.36;46.83
68822;BME280;55834;50.870;4.606;2023-09-08T08:36:20;100977.13;;;25.50;46.61
68822;BME280;55834;50.870;4.606;2023-09-08T08:38:46;100992.16;;;25.64;46.04
68822;BME280;55834;50.870;4.606;2023-09-08T08:41:11;100987.78;;;25.73;46.58
68822;BME280;55834;50.870;4.606;2023-09-08T08:43:36;100985.09;;;25.82;45.95
68822;BME280;55834;50.870;4.606;2023-09-08T08:46:02;100987.38;;;25.87;45.92
68822;BME280;55834;50.870;4.606;2023-09-08T08:48:29;100991.66;;;25.90;46.20
68822;BME280;55834;50.870;4.606;2023-09-08T08:50:57;100999.25;;;26.05;46.07
68822;BME280;55834;50.870;4.606;2023-09-08T08:53:23;100998.25;;;26.06;45.54
68822;BME280;55834;50.870;4.606;2023-09-08T08:55:51;100999.31;;;26.15;45.58
68822;BME280;55834;50.870;4.606;2023-09-08T08:58:19;100992.06;;;26.25;46.17
68822;BME280;55834;50.870;4.606;2023-09-08T09:00:51;100997.78;;;26.32;45.24
68822;BME280;55834;50.870;4.606;2023-09-08T09:03:17;100996.38;;;26.38;45.30
68822;BME280;55834;50.870;4.606;2023-09-08T09:05:43;100996.50;;;26.46;45.47
68822;BME280;55834;50.870;4.606;2023-09-08T09:08:10;100990.81;;;26.49;45.04
68822;BME280;55834;50.870;4.606;2023-09-08T09:10:37;100989.97;;;26.58;45.02
68822;BME280;55834;50.870;4.606;2023-09-08T09:13:02;100994.38;;;26.69;45.31
68822;BME280;55834;50.870;4.606;2023-09-08T09:15:29;100990.00;;;26.78;44.87
68822;BME280;55834;50.870;4.606;2023-09-08T09:18:05;100996.66;;;26.64;44.44
68822;BME280;55834;50.870;4.606;2023-09-08T09:20:31;100993.66;;;26.47;44.44
68822;BME280;55834;50.870;4.606;2023-09-08T09:22:57;100995.53;;;26.66;44.97
68822;BME280;55834;50.870;4.606;2023-09-08T09:25:25;100996.41;;;26.86;45.00
68822;BME280;55834;50.870;4.606;2023-09-08T09:27:52;100989.53;;;27.02;43.77
68822;BME280;55834;50.870;4.606;2023-09-08T09:30:18;100994.66;;;27.05;44.00
68822;BME280;55834;50.870;4.606;2023-09-08T09:32:44;100991.91;;;27.14;42.90
68822;BME280;55834;50.870;4.606;2023-09-08T09:35:09;100992.91;;;27.23;43.87
68822;BME280;55834;50.870;4.606;2023-09-08T09:37:35;100981.09;;;27.14;43.43
68822;BME280;55834;50.870;4.606;2023-09-08T09:40:01;100979.66;;;27.30;44.46
68822;BME280;55834;50.870;4.606;2023-09-08T09:42:28;100985.50;;;27.35;42.38
68822;BME280;55834;50.870;4.606;2023-09-08T09:44:54;100988.47;;;27.41;44.02
68822;BME280;55834;50.870;4.606;2023-09-08T09:47:19;100991.44;;;27.48;43.52
68822;BME280;55834;50.870;4.606;2023-09-08T09:49:46;100985.41;;;27.54;42.79
68822;BME280;55834;50.870;4.606;2023-09-08T09:52:13;100994.22;;;27.66;43.62
68822;BME280;55834;50.870;4.606;2023-09-08T09:54:42;100993.97;;;27.59;42.57
68822;BME280;55834;50.870;4.606;2023-09-08T09:57:14;100987.50;;;27.70;43.35
68822;BME280;55834;50.870;4.606;2023-09-08T09:59:43;100983.63;;;27.82;42.75
68822;BME280;55834;50.870;4.606;2023-09-08T10:02:12;100989.16;;;27.91;42.49
68822;BME280;55834;50.870;4.606;2023-09-08T10:04:40;100995.13;;;27.94;42.56
68822;BME280;55834;50.870;4.606;2023-09-08T10:07:06;100990.66;;;28.03;41.54
68822;BME280;55834;50.870;4.606;2023-09-08T10:09:31;100984.28;;;28.12;42.39
68822;BME280;55834;50.870;4.606;2023-09-08T10:12:01;100990.66;;;28.21;42.61
68822;BME280;55834;50.870;4.606;2023-09-08T10:14:28;100989.63;;;28.04;40.21
68822;BME280;55834;50.870;4.606;2023-09-08T10:16:56;100995.13;;;27.94;42.71
68822;BME280;55834;50.870;4.606;2023-09-08T10:19:24;100990.75;;;28.11;42.84
68822;BME280;55834;50.870;4.606;2023-09-08T10:21:51;100992.97;;;28.16;42.06
68822;BME280;55834;50.870;4.606;2023-09-08T10:24:33;100996.56;;;28.16;41.80
68822;BME280;55834;50.870;4.606;2023-09-08T10:29:31;101000.59;;;28.40;41.61
68822;BME280;55834;50.870;4.606;2023-09-08T10:31:58;101000.84;;;27.54;42.16
68822;BME280;55834;50.870;4.606;2023-09-08T10:34:24;101001.50;;;27.65;43.19
68822;BME280;55834;50.870;4.606;2023-09-08T10:36:49;100997.63;;;28.05;42.19
68822;BME280;55834;50.870;4.606;2023-09-08T10:49:45;100990.78;;;28.47;42.07
68822;BME280;55834;50.870;4.606;2023-09-08T10:52:12;100993.59;;;28.55;39.81
68822;BME280;55834;50.870;4.606;2023-09-08T10:54:47;100990.19;;;28.71;40.05
68822;BME280;55834;50.870;4.606;2023-09-08T10:57:14;100990.50;;;28.68;40.78
68822;BME280;55834;50.870;4.606;2023-09-08T10:59:44;100993.22;;;28.86;39.98
68822;BME280;55834;50.870;4.606;2023-09-08T11:02:34;100995.63;;;28.89;40.03
68822;BME280;55834;50.870;4.606;2023-09-08T11:05:06;100989.38;;;28.96;39.73
68822;BME280;55834;50.870;4.606;2023-09-08T11:07:31;100986.06;;;28.85;39.58
68822;BME280;55834;50.870;4.606;2023-09-08T11:09:58;100992.69;;;27.54;41.87
68822;BME280;55834;50.870;4.606;2023-09-08T11:12:26;100983.06;;;27.69;41.23
68822;BME280;55834;50.870;4.606;2023-09-08T11:14:52;100981.34;;;27.40;43.40
68822;BME280;55834;50.870;4.606;2023-09-08T11:17:17;100986.59;;;28.07;42.50
68822;BME280;55834;50.870;4.606;2023-09-08T11:19:48;100990.16;;;28.53;41.19
68822;BME280;55834;50.870;4.606;2023-09-08T11:22:15;100986.59;;;28.52;41.28
68822;BME280;55834;50.870;4.606;2023-09-08T11:24:41;100989.56;;;27.96;39.18
68822;BME280;55834;50.870;4.606;2023-09-08T11:27:07;100987.22;;;27.73;42.15
68822;BME280;55834;50.870;4.606;2023-09-08T11:29:32;100981.75;;;28.28;40.68
68822;BME280;55834;50.870;4.606;2023-09-08T11:31:58;100982.19;;;28.69;38.34
68822;BME280;55834;50.870;4.606;2023-09-08T11:34:23;100984.59;;;28.90;38.75
68822;BME280;55834;50.870;4.606;2023-09-08T11:36:49;100978.56;;;29.05;38.44
68822;BME280;55834;50.870;4.606;2023-09-08T11:39:14;100978.53;;;29.22;37.78
68822;BME280;55834;50.870;4.606;2023-09-08T11:41:41;100973.56;;;29.36;37.14
68822;BME280;55834;50.870;4.606;2023-09-08T11:44:06;100976.31;;;29.18;37.50
68822;BME280;55834;50.870;4.606;2023-09-08T11:46:32;100978.44;;;29.32;37.52
68822;BME280;55834;50.870;4.606;2023-09-08T11:48:57;100973.41;;;29.45;37.09
68822;BME280;55834;50.870;4.606;2023-09-08T11:51:23;100976.88;;;29.56;36.38
68822;BME280;55834;50.870;4.606;2023-09-08T11:53:49;100970.88;;;29.18;35.63
68822;BME280;55834;50.870;4.606;2023-09-08T11:56:15;100966.41;;;29.35;36.82
68822;BME280;55834;50.870;4.606;2023-09-08T11:58:41;100974.00;;;29.05;35.44
68822;BME280;55834;50.870;4.606;2023-09-08T12:01:08;100968.41;;;29.33;36.51
68822;BME280;55834;50.870;4.606;2023-09-08T12:03:34;100966.06;;;29.12;36.41
68822;BME280;55834;50.870;4.606;2023-09-08T12:06:00;100973.63;;;28.10;37.20
68822;BME280;55834;50.870;4.606;2023-09-08T12:08:27;100967.28;;;28.91;36.82
68822;BME280;55834;50.870;4.606;2023-09-08T12:10:53;100960.81;;;29.36;36.56
68822;BME280;55834;50.870;4.606;2023-09-08T12:13:23;100965.34;;;29.62;37.43
68822;BME280;55834;50.870;4.606;2023-09-08T12:15:49;100967.75;;;29.65;36.62
68822;BME280;55834;50.870;4.606;2023-09-08T12:18:15;100964.72;;;29.76;37.82
68822;BME280;55834;50.870;4.606;2023-09-08T12:20:41;100971.91;;;29.51;37.37
68822;BME280;55834;50.870;4.606;2023-09-08T12:23:18;100969.97;;;29.35;38.06
68822;BME280;55834;50.870;4.606;2023-09-08T12:25:45;100970.31;;;29.66;37.28
68822;BME280;55834;50.870;4.606;2023-09-08T12:28:11;100974.25;;;29.72;34.64
68822;BME280;55834;50.870;4.606;2023-09-08T12:30:36;100966.69;;;29.92;34.99
68822;BME280;55834;50.870;4.606;2023-09-08T12:33:02;100969.31;;;29.76;33.81
68822;BME280;55834;50.870;4.606;2023-09-08T12:35:28;100963.56;;;29.79;33.58
68822;BME280;55834;50.870;4.606;2023-09-08T12:38:04;100969.78;;;30.05;34.10
68822;BME280;55834;50.870;4.606;2023-09-08T12:40:35;100970.00;;;30.20;33.83
68822;BME280;55834;50.870;4.606;2023-09-08T12:43:01;100969.25;;;29.59;36.80
68822;BME280;55834;50.870;4.606;2023-09-08T12:45:27;100966.56;;;30.02;35.06
68822;BME280;55834;50.870;4.606;2023-09-08T12:47:53;100962.50;;;30.14;33.68
68822;BME280;55834;50.870;4.606;2023-09-08T12:50:20;100960.13;;;30.19;33.56
68822;BME280;55834;50.870;4.606;2023-09-08T12:52:45;100965.38;;;30.21;33.50
68822;BME280;55834;50.870;4.606;2023-09-08T12:55:11;100964.22;;;30.31;34.49
68822;BME280;55834;50.870;4.606;2023-09-08T12:57:36;100959.44;;;30.17;34.43
68822;BME280;55834;50.870;4.606;2023-09-08T13:00:05;100954.59;;;29.95;34.09
68822;BME280;55834;50.870;4.606;2023-09-08T13:02:31;100952.06;;;28.81;34.38